createdAt,value
2022-11-05T00:00:47.011Z,98974.22
2022-11-05T00:03:43.523Z,98979.16
2022-11-05T00:06:37.027Z,98979.63
2022-11-05T00:09:55.605Z,98981.03
2022-11-05T00:12:58.285Z,98982.78
2022-11-05T00:16:08.152Z,98985.28
2022-11-05T00:19:06.508Z,98986.09
2022-11-05T00:22:02.530Z,98987.88
2022-11-05T00:24:55.923Z,98988.69
2022-11-05T00:27:36.513Z,98993.53
2022-11-05T00:30:23.031Z,98991.53
2022-11-05T00:33:19.445Z,98996.34
2022-11-05T00:35:59.592Z,98992.72
2022-11-05T00:38:52.055Z,99003.53
2022-11-05T00:41:46.450Z,99000.94
2022-11-05T00:44:45.017Z,99005.03
2022-11-05T00:47:45.824Z,98997.06
2022-11-05T00:50:33.150Z,98995.78
2022-11-05T00:53:22.207Z,98993.13
2022-11-05T00:56:04.501Z,98994.44
2022-11-05T00:58:42.280Z,98995.75
2022-11-05T01:01:31.285Z,98998.75
2022-11-05T01:04:14.307Z,98991.81
2022-11-05T01:07:03.323Z,98993.09
2022-11-05T01:09:50.210Z,98991.97
2022-11-05T01:12:49.643Z,98994.34
2022-11-05T01:15:32.206Z,98995.22
2022-11-05T01:18:19.138Z,98998.97
2022-11-05T01:21:05.746Z,99008.56
2022-11-05T01:23:58.156Z,99014.25
2022-11-05T01:26:39.273Z,99010.25
2022-11-05T01:29:25.457Z,99013.78
2022-11-05T01:32:12.442Z,99011.84
2022-11-05T01:34:57.364Z,99011.13
2022-11-05T01:37:46.227Z,99004.72
2022-11-05T01:40:36.354Z,98998.13
2022-11-05T01:43:29.064Z,98993.69
2022-11-05T01:46:20.028Z,98988.53
2022-11-05T01:49:05.584Z,98980.91
2022-11-05T01:51:48.992Z,98982.03
2022-11-05T01:54:32.881Z,98985.97
2022-11-05T01:57:14.975Z,98997.66
2022-11-05T02:00:03.332Z,98996.69
2022-11-05T02:02:54.566Z,98988.53
2022-11-05T02:05:45.016Z,98992.88
2022-11-05T02:08:33.767Z,98997.88
2022-11-05T02:11:20.515Z,99001.84
2022-11-05T02:14:00.854Z,99010.00
2022-11-05T02:17:14.243Z,99016.34
2022-11-05T02:20:15.477Z,99016.19
2022-11-05T02:23:14.334Z,99017.97
2022-11-05T02:26:23.900Z,99021.72
2022-11-05T02:29:24.285Z,99026.88
2022-11-05T02:32:24.383Z,99014.13
2022-11-05T02:35:24.161Z,99004.97
2022-11-05T02:38:37.399Z,99001.78
2022-11-05T02:41:43.338Z,99018.13
2022-11-05T02:44:33.067Z,99029.25
2022-11-05T02:47:38.765Z,99045.50
2022-11-05T02:51:03.817Z,99040.28
2022-11-05T02:53:45.912Z,99032.09
2022-11-05T02:56:35.002Z,99026.50
2022-11-05T02:59:15.467Z,99030.22
2022-11-05T03:01:57.712Z,99028.13
2022-11-05T03:04:41.895Z,99041.13
2022-11-05T03:07:36.445Z,99051.91
2022-11-05T03:10:47.360Z,99053.84
2022-11-05T03:13:49.507Z,99050.38
2022-11-05T03:16:52.414Z,99031.63
2022-11-05T03:19:41.429Z,99032.25
2022-11-05T03:22:35.503Z,99025.88
2022-11-05T03:25:26.443Z,99025.84
2022-11-05T03:28:22.881Z,99031.16
2022-11-05T03:30:58.587Z,99039.63
2022-11-05T03:33:49.464Z,99043.75
2022-11-05T03:36:41.298Z,99052.47
2022-11-05T03:39:48.933Z,99051.41
2022-11-05T03:42:33.625Z,99041.75
2022-11-05T03:45:27.458Z,99028.38
2022-11-05T03:48:04.785Z,99043.84
2022-11-05T03:50:51.387Z,99054.34
2022-11-05T03:53:38.953Z,99060.53
2022-11-05T03:56:53.845Z,99064.16
2022-11-05T03:59:43.576Z,99069.69
2022-11-05T04:02:28.066Z,99063.53
2022-11-05T04:05:05.499Z,99056.59
2022-11-05T04:08:03.060Z,99069.69
2022-11-05T04:11:02.072Z,99080.44
2022-11-05T04:13:40.936Z,99068.44
2022-11-05T04:16:35.355Z,99076.53
2022-11-05T04:19:11.474Z,99074.81
2022-11-05T04:22:07.626Z,99077.66
2022-11-05T04:24:53.659Z,99070.53
2022-11-05T04:27:39.922Z,99071.16
2022-11-05T04:30:27.550Z,99060.66
2022-11-05T04:33:28.246Z,99055.28
2022-11-05T04:36:09.063Z,99057.97
2022-11-05T04:38:55.572Z,99058.38
2022-11-05T04:41:38.681Z,99050.56
2022-11-05T04:44:27.523Z,99055.69
2022-11-05T04:47:10.457Z,99053.16
2022-11-05T04:49:54.712Z,99053.94
2022-11-05T04:52:49.269Z,99052.75
2022-11-05T04:55:38.880Z,99046.16
2022-11-05T04:58:22.826Z,99046.38
2022-11-05T05:01:05.839Z,99044.91
2022-11-05T05:03:48.323Z,99047.38
2022-11-05T05:06:29.627Z,99055.69
2022-11-05T05:09:18.410Z,99052.75
2022-11-05T05:12:01.411Z,99059.88
2022-11-05T05:14:45.429Z,99066.22
2022-11-05T05:17:26.449Z,99072.69
2022-11-05T05:20:19.948Z,99067.69
2022-11-05T05:23:01.366Z,99071.34
2022-11-05T05:25:46.937Z,99081.91
2022-11-05T05:28:29.801Z,99071.84
2022-11-05T05:31:21.377Z,99082.19
2022-11-05T05:34:09.005Z,99077.44
2022-11-05T05:36:51.929Z,99079.09
2022-11-05T05:39:39.461Z,99079.75
2022-11-05T05:42:19.626Z,99077.03
2022-11-05T05:45:08.083Z,99077.50
2022-11-05T05:47:48.090Z,99090.66
2022-11-05T05:50:36.852Z,99099.34
2022-11-05T05:53:23.458Z,99096.44
2022-11-05T05:56:07.394Z,99093.75
2022-11-05T05:58:45.626Z,99090.78
2022-11-05T06:01:29.436Z,99089.38
2022-11-05T06:04:12.429Z,99102.00
2022-11-05T06:06:59.221Z,99105.81
2022-11-05T06:09:48.217Z,99115.94
2022-11-05T06:12:42.880Z,99123.56
2022-11-05T06:15:20.450Z,99143.97
2022-11-05T06:18:10.141Z,99146.56
2022-11-05T06:20:56.096Z,99153.28
2022-11-05T06:23:43.460Z,99152.34
2022-11-05T06:26:32.052Z,99151.44
2022-11-05T06:29:18.878Z,99148.81
2022-11-05T06:32:02.814Z,99167.75
2022-11-05T06:34:49.483Z,99159.97
2022-11-05T06:37:27.810Z,99166.13
2022-11-05T06:40:20.500Z,99159.50
2022-11-05T06:43:00.867Z,99161.75
2022-11-05T06:45:44.992Z,99161.91
2022-11-05T06:48:32.183Z,99169.03
2022-11-05T06:51:16.717Z,99169.81
2022-11-05T06:53:55.350Z,99174.00
2022-11-05T06:56:41.343Z,99171.84
2022-11-05T06:59:27.340Z,99171.50
2022-11-05T07:02:13.557Z,99170.84
2022-11-05T07:04:59.621Z,99173.41
2022-11-05T07:07:40.004Z,99170.28
2022-11-05T07:10:22.425Z,99162.84
2022-11-05T07:13:11.093Z,99170.28
2022-11-05T07:16:03.500Z,99169.19
2022-11-05T07:18:53.468Z,99177.47
2022-11-05T07:21:55.513Z,99170.56
2022-11-05T07:24:39.661Z,99165.84
2022-11-05T07:27:34.075Z,99162.16
2022-11-05T07:30:36.072Z,99149.13
2022-11-05T07:33:25.325Z,99150.50
2022-11-05T07:36:15.421Z,99145.91
2022-11-05T07:39:05.186Z,99150.84
2022-11-05T07:41:59.558Z,99150.13
2022-11-05T07:45:05.719Z,99146.31
2022-11-05T07:48:11.426Z,99154.00
2022-11-05T07:50:51.844Z,99153.69
2022-11-05T07:53:32.608Z,99154.50
2022-11-05T07:56:37.110Z,99156.53
2022-11-05T07:59:20.472Z,99159.59
2022-11-05T08:02:10.131Z,99156.84
2022-11-05T08:04:58.391Z,99165.94
2022-11-05T08:07:44.489Z,99166.72
2022-11-05T08:10:26.265Z,99163.81
2022-11-05T08:13:24.370Z,99162.31
2022-11-05T08:16:11.448Z,99162.16
2022-11-05T08:19:02.054Z,99155.88
2022-11-05T08:21:54.731Z,99158.88
2022-11-05T08:24:44.021Z,99156.63
2022-11-05T08:27:32.598Z,99159.41
2022-11-05T08:30:22.909Z,99167.84
2022-11-05T08:33:09.754Z,99165.91
2022-11-05T08:35:55.708Z,99163.66
2022-11-05T08:38:41.475Z,99172.88
2022-11-05T08:41:25.755Z,99162.44
2022-11-05T08:44:14.646Z,99166.88
2022-11-05T08:47:07.064Z,99169.66
2022-11-05T08:49:57.364Z,99165.34
2022-11-05T08:52:47.901Z,99167.94
2022-11-05T08:55:41.103Z,99171.59
2022-11-05T08:58:32.891Z,99174.44
2022-11-05T09:01:19.335Z,99172.06
2022-11-05T09:04:11.832Z,99175.19
2022-11-05T09:06:57.192Z,99178.34
2022-11-05T09:09:37.066Z,99180.78
2022-11-05T09:12:21.133Z,99176.53
2022-11-05T09:15:07.115Z,99176.63
2022-11-05T09:17:56.829Z,99185.06
2022-11-05T09:20:45.025Z,99202.72
2022-11-05T09:23:43.894Z,99203.25
2022-11-05T09:26:30.169Z,99213.22
2022-11-05T09:29:22.075Z,99203.88
2022-11-05T09:32:02.771Z,99205.44
2022-11-05T09:34:53.686Z,99221.69
2022-11-05T09:37:38.429Z,99222.28
2022-11-05T09:40:34.680Z,99219.81
2022-11-05T09:43:35.402Z,99219.09
2022-11-05T09:46:21.620Z,99216.91
2022-11-05T09:49:04.361Z,99212.19
2022-11-05T09:51:52.909Z,99208.81
2022-11-05T09:54:39.110Z,99207.28
2022-11-05T09:57:31.435Z,99202.16
2022-11-05T10:00:23.652Z,99206.31
2022-11-05T10:03:30.672Z,99216.94
2022-11-05T10:06:23.165Z,99207.78
2022-11-05T10:09:17.682Z,99203.44
2022-11-05T10:12:16.811Z,99203.69
2022-11-05T10:15:34.000Z,99198.28
2022-11-05T10:18:29.363Z,99209.19
2022-11-05T10:21:13.389Z,99210.13
2022-11-05T10:23:52.955Z,99215.31
2022-11-05T10:26:41.774Z,99215.78
2022-11-05T10:29:32.508Z,99206.50
2022-11-05T10:32:24.572Z,99209.22
2022-11-05T10:35:13.940Z,99204.03
2022-11-05T10:38:15.643Z,99195.66
2022-11-05T10:41:58.859Z,99190.84
2022-11-05T10:44:48.994Z,99190.34
2022-11-05T10:47:58.217Z,99190.03
2022-11-05T10:50:41.638Z,99187.31
2022-11-05T10:53:41.123Z,99194.25
2022-11-05T10:56:49.445Z,99207.19
2022-11-05T10:59:33.673Z,99201.66
2022-11-05T11:02:30.326Z,99206.59
2022-11-05T11:05:18.865Z,99212.81
2022-11-05T11:08:09.900Z,99209.13
2022-11-05T11:10:57.296Z,99203.28
2022-11-05T11:13:52.580Z,99204.22
2022-11-05T11:16:50.883Z,99213.13
2022-11-05T11:19:43.808Z,99216.75
2022-11-05T11:22:34.455Z,99219.13
2022-11-05T11:25:52.801Z,99231.25
2022-11-05T11:28:46.995Z,99234.72
2022-11-05T11:31:30.502Z,99226.94
2022-11-05T11:34:34.456Z,99217.03
2022-11-05T11:37:19.429Z,99223.66
2022-11-05T11:40:10.016Z,99222.06
2022-11-05T11:42:58.785Z,99220.03
2022-11-05T11:45:52.435Z,99214.78
2022-11-05T11:48:49.069Z,99215.91
2022-11-05T11:51:50.098Z,99222.66
2022-11-05T11:54:36.708Z,99231.06
2022-11-05T11:57:32.161Z,99229.41
2022-11-05T12:00:30.254Z,99233.50
2022-11-05T12:03:22.677Z,99233.03
2022-11-05T12:06:28.509Z,99233.69
2022-11-05T12:09:16.446Z,99228.94
2022-11-05T12:12:36.458Z,99236.81
2022-11-05T12:15:47.854Z,99240.59
2022-11-05T12:18:39.489Z,99235.75
2022-11-05T12:21:57.288Z,99241.44
2022-11-05T12:25:13.082Z,99248.50
2022-11-05T12:28:12.779Z,99252.28
2022-11-05T12:31:13.456Z,99247.38
2022-11-05T12:34:24.636Z,99238.81
2022-11-05T12:37:46.443Z,99237.41
2022-11-05T12:41:01.827Z,99242.25
2022-11-05T12:43:59.749Z,99236.09
2022-11-05T12:47:07.921Z,99243.19
2022-11-05T12:50:21.135Z,99248.59
2022-11-05T12:53:26.575Z,99247.44
2022-11-05T12:56:19.126Z,99254.06
2022-11-05T12:59:06.465Z,99248.63
2022-11-05T13:01:55.253Z,99263.84
2022-11-05T13:04:46.871Z,99265.97
2022-11-05T13:07:40.287Z,99266.97
2022-11-05T13:10:44.409Z,99272.63
2022-11-05T13:13:43.740Z,99278.06
2022-11-05T13:16:51.340Z,99282.16
2022-11-05T13:19:51.540Z,99278.69
2022-11-05T13:22:47.786Z,99277.13
2022-11-05T13:25:28.638Z,99286.56
2022-11-05T13:28:39.885Z,99292.66
2022-11-05T13:31:20.602Z,99287.16
2022-11-05T13:34:13.447Z,99284.28
2022-11-05T13:37:29.999Z,99277.47
2022-11-05T13:40:23.402Z,99285.69
2022-11-05T13:43:53.440Z,99282.75
2022-11-05T13:46:55.592Z,99289.75
2022-11-05T13:49:51.601Z,99282.53
2022-11-05T13:53:00.418Z,99286.44
2022-11-05T13:56:02.765Z,99295.47
2022-11-05T13:59:46.643Z,99296.41
2022-11-05T14:12:49.275Z,99315.53
2022-11-05T14:15:31.829Z,99322.63
2022-11-05T14:18:43.083Z,99320.84
2022-11-05T14:21:55.465Z,99314.63
2022-11-05T14:24:49.097Z,99320.16
2022-11-05T14:27:50.639Z,99321.34
2022-11-05T14:30:54.561Z,99321.34
2022-11-05T14:33:44.089Z,99331.84
2022-11-05T14:36:32.995Z,99333.47
2022-11-05T14:39:28.105Z,99340.91
2022-11-05T14:42:12.892Z,99341.94
2022-11-05T14:44:59.092Z,99348.91
2022-11-05T14:47:58.831Z,99354.91
2022-11-05T14:50:47.608Z,99365.97
2022-11-05T14:53:46.737Z,99353.38
2022-11-05T14:56:27.745Z,99350.09
2022-11-05T14:59:22.267Z,99356.41
2022-11-05T15:02:12.051Z,99362.53
2022-11-05T15:04:51.732Z,99367.47
2022-11-05T15:07:50.528Z,99369.00
2022-11-05T15:10:37.468Z,99372.78
2022-11-05T15:13:52.545Z,99374.16
2022-11-05T15:16:49.154Z,99373.69
2022-11-05T15:19:42.076Z,99379.13
2022-11-05T15:22:32.006Z,99379.00
2022-11-05T15:25:31.249Z,99379.97
2022-11-05T15:28:34.385Z,99382.41
2022-11-05T15:31:27.890Z,99376.88
2022-11-05T15:34:31.933Z,99385.56
2022-11-05T15:37:24.208Z,99388.38
2022-11-05T15:40:03.559Z,99397.19
2022-11-05T15:42:45.192Z,99388.59
2022-11-05T15:45:41.105Z,99397.03
2022-11-05T15:48:30.250Z,99406.56
2022-11-05T15:51:20.199Z,99412.41
2022-11-05T15:54:30.139Z,99413.19
2022-11-05T15:57:28.411Z,99417.31
2022-11-05T16:00:31.020Z,99413.94
2022-11-05T16:03:30.076Z,99416.78
2022-11-05T16:06:26.102Z,99411.09
2022-11-05T16:09:07.694Z,99410.97
2022-11-05T16:12:02.962Z,99422.13
2022-11-05T16:15:07.617Z,99425.19
2022-11-05T16:17:54.559Z,99422.13
2022-11-05T16:20:41.945Z,99418.66
2022-11-05T16:23:42.175Z,99438.06
2022-11-05T16:30:01.148Z,99442.25
2022-11-05T16:32:44.856Z,99445.72
2022-11-05T16:35:31.102Z,99451.00
2022-11-05T16:38:21.249Z,99452.38
2022-11-05T16:41:10.270Z,99457.47
2022-11-05T16:43:59.183Z,99457.34
2022-11-05T16:46:52.231Z,99463.19
2022-11-05T16:49:42.429Z,99465.69
2022-11-05T16:52:26.091Z,99470.13
2022-11-05T16:55:10.088Z,99470.94
2022-11-05T16:57:57.114Z,99472.75
2022-11-05T17:00:44.405Z,99480.03
2022-11-05T17:03:34.113Z,99477.13
2022-11-05T17:06:21.332Z,99479.63
2022-11-05T17:09:10.823Z,99483.69
2022-11-05T17:12:00.889Z,99481.41
2022-11-05T17:14:50.401Z,99480.75
2022-11-05T17:17:41.664Z,99488.19
2022-11-05T17:20:46.641Z,99497.13
2022-11-05T17:23:30.256Z,99497.19
2022-11-05T17:26:15.216Z,99486.78
2022-11-05T17:29:03.588Z,99489.47
2022-11-05T17:31:47.639Z,99497.28
2022-11-05T17:34:34.126Z,99496.09
2022-11-05T17:37:14.550Z,99500.91
2022-11-05T17:40:11.530Z,99510.84
2022-11-05T17:42:53.222Z,99514.47
2022-11-05T17:45:39.213Z,99514.03
2022-11-05T17:48:31.941Z,99521.88
2022-11-05T17:51:21.497Z,99515.06
2022-11-05T17:54:04.622Z,99516.66
2022-11-05T17:56:50.308Z,99527.88
2022-11-05T17:59:35.524Z,99530.81
2022-11-05T18:02:26.730Z,99526.78
2022-11-05T18:05:10.402Z,99529.81
2022-11-05T18:08:03.603Z,99527.25
2022-11-05T18:10:50.523Z,99522.91
2022-11-05T18:13:34.626Z,99535.44
2022-11-05T18:16:17.569Z,99529.81
2022-11-05T18:18:59.131Z,99538.97
2022-11-05T18:21:41.514Z,99543.09
2022-11-05T18:24:32.637Z,99543.28
2022-11-05T18:27:18.434Z,99552.53
2022-11-05T18:30:05.510Z,99544.00
2022-11-05T18:32:51.440Z,99557.66
2022-11-05T18:35:43.456Z,99557.06
2022-11-05T18:38:24.092Z,99550.81
2022-11-05T18:41:14.116Z,99568.16
2022-11-05T18:43:51.959Z,99571.72
2022-11-05T18:46:57.067Z,99577.88
2022-11-05T18:49:49.177Z,99579.13
2022-11-05T18:52:30.170Z,99578.78
2022-11-05T18:55:17.191Z,99573.31
2022-11-05T18:57:57.677Z,99586.97
2022-11-05T19:00:43.203Z,99582.47
2022-11-05T19:03:23.822Z,99588.91
2022-11-05T19:06:10.536Z,99594.25
2022-11-05T19:08:56.071Z,99597.00
2022-11-05T19:11:47.787Z,99597.56
2022-11-05T19:14:33.163Z,99604.38
2022-11-05T19:17:16.648Z,99605.03
2022-11-05T19:19:57.133Z,99616.66
2022-11-05T19:22:51.620Z,99615.22
2022-11-05T19:25:31.264Z,99615.41
2022-11-05T19:28:29.087Z,99617.16
2022-11-05T19:31:07.325Z,99614.50
2022-11-05T19:33:54.666Z,99627.69
2022-11-05T19:36:37.148Z,99637.16
2022-11-05T19:39:22.976Z,99636.88
2022-11-05T19:42:13.233Z,99630.47
2022-11-05T19:45:16.758Z,99637.13
2022-11-05T19:48:06.531Z,99640.03
2022-11-05T19:50:59.382Z,99645.97
2022-11-05T19:53:43.825Z,99649.72
2022-11-05T19:56:32.965Z,99650.34
2022-11-05T19:59:14.038Z,99652.63
2022-11-05T20:01:52.592Z,99660.72
2022-11-05T20:04:41.010Z,99661.00
2022-11-05T20:07:27.556Z,99668.06
2022-11-05T20:10:07.611Z,99668.00
2022-11-05T20:12:50.566Z,99677.97
2022-11-05T20:15:36.035Z,99676.28
2022-11-05T20:18:25.359Z,99680.50
2022-11-05T20:21:31.477Z,99683.34
2022-11-05T20:24:25.272Z,99686.09
2022-11-05T20:27:03.561Z,99686.53
2022-11-05T20:29:50.026Z,99683.56
2022-11-05T20:32:39.040Z,99687.53
2022-11-05T20:35:25.489Z,99697.56
2022-11-05T20:38:12.275Z,99696.25
2022-11-05T20:41:01.803Z,99700.44
2022-11-05T20:43:41.076Z,99701.88
2022-11-05T20:46:27.061Z,99702.72
2022-11-05T20:49:08.098Z,99706.66
2022-11-05T20:52:03.164Z,99708.28
2022-11-05T20:54:52.998Z,99705.19
2022-11-05T20:57:36.794Z,99705.56
2022-11-05T21:00:20.825Z,99714.88
2022-11-05T21:02:55.573Z,99717.81
2022-11-05T21:05:36.390Z,99715.34
2022-11-05T21:08:23.066Z,99719.44
2022-11-05T21:11:08.492Z,99716.97
2022-11-05T21:13:54.797Z,99721.56
2022-11-05T21:16:38.959Z,99724.47
2022-11-05T21:19:18.259Z,99728.22
2022-11-05T21:22:04.196Z,99729.88
2022-11-05T21:24:56.794Z,99729.09
2022-11-05T21:27:46.454Z,99721.22
2022-11-05T21:30:25.126Z,99723.94
2022-11-05T21:33:06.103Z,99728.66
2022-11-05T21:35:52.886Z,99732.81
2022-11-05T21:38:38.275Z,99733.81
2022-11-05T21:41:30.028Z,99730.50
2022-11-05T21:44:11.513Z,99722.84
2022-11-05T21:46:52.475Z,99729.47
2022-11-05T21:49:33.042Z,99731.56
2022-11-05T21:52:33.884Z,99732.81
2022-11-05T21:55:30.168Z,99736.94
2022-11-05T21:58:34.763Z,99735.72
2022-11-05T22:01:17.831Z,99732.00
2022-11-05T22:04:02.845Z,99736.75
2022-11-05T22:06:43.398Z,99732.59
2022-11-05T22:09:29.892Z,99732.41
2022-11-05T22:12:10.502Z,99735.13
2022-11-05T22:14:51.109Z,99733.25
2022-11-05T22:17:33.828Z,99742.34
2022-11-05T22:20:19.708Z,99743.59
2022-11-05T22:23:10.882Z,99740.69
2022-11-05T22:26:03.324Z,99741.09
2022-11-05T22:28:47.117Z,99742.28
2022-11-05T22:31:53.400Z,99736.72
2022-11-05T22:34:39.857Z,99745.66
2022-11-05T22:37:25.230Z,99741.09
2022-11-05T22:40:14.323Z,99747.94
2022-11-05T22:42:58.984Z,99745.66
2022-11-05T22:45:48.554Z,99739.03
2022-11-05T22:48:31.493Z,99743.59
2022-11-05T22:51:13.780Z,99744.41
2022-11-05T22:54:04.229Z,99730.75
2022-11-05T22:56:51.084Z,99743.41
2022-11-05T22:59:31.939Z,99741.09
2022-11-05T23:02:12.733Z,99736.19
2022-11-05T23:04:56.055Z,99747.34
2022-11-05T23:07:55.579Z,99750.44
2022-11-05T23:10:48.841Z,99747.75
2022-11-05T23:13:32.127Z,99738.69
2022-11-05T23:16:25.784Z,99747.34
2022-11-05T23:19:22.311Z,99747.75
2022-11-05T23:22:21.606Z,99743.22
2022-11-05T23:25:07.672Z,99752.38
2022-11-05T23:27:46.437Z,99761.50
2022-11-05T23:30:36.969Z,99756.50
2022-11-05T23:33:20.295Z,99763.34
2022-11-05T23:36:22.138Z,99760.44
2022-11-05T23:39:10.096Z,99768.53
2022-11-05T23:42:04.978Z,99761.47
2022-11-05T23:45:01.931Z,99763.56
2022-11-05T23:48:01.270Z,99776.22
2022-11-05T23:50:47.183Z,99768.97
2022-11-05T23:53:26.899Z,99774.13
2022-11-05T23:56:11.892Z,99772.88
2022-11-05T23:58:57.649Z,99774.31
